Time;durP1;ratioP1;P1;durP2;ratioP2;P2;SDS_P1;SDS_P2;PMS_P1;PMS_P2;Temp;Humidity;BMP_temperature;BMP_pressure;BME280_temperature;BME280_humidity;BME280_pressure;Samples;Min_cycle;Max_cycle;Signal;HPM_P1;HPM_P2
2022/06/06 00:00:00;;;;;;;23.20;11.90;;;;;;;13.98;56.04;99200.23;105925;1277;112005;-66
2022/06/06 00:02:49;;;;;;;22.00;12.80;;;;;;;13.95;56.25;99196.73;105929;1278;97979;-68
2022/06/06 00:05:18;;;;;;;21.30;13.10;;;;;;;13.93;56.24;99188.98;105913;1277;108160;-68
2022/06/06 00:07:46;;;;;;;22.50;13.00;;;;;;;13.92;56.37;99182.70;105911;1277;97891;-69
2022/06/06 00:10:15;;;;;;;22.40;11.80;;;;;;;13.91;56.36;99177.10;105876;1277;95313;-68
2022/06/06 00:12:44;;;;;;;20.40;12.00;;;;;;;13.90;56.38;99179.27;105914;1277;112168;-69
2022/06/06 00:15:14;;;;;;;21.20;12.90;;;;;;;13.89;56.52;99182.99;105861;1277;96377;-67
2022/06/06 00:17:44;;;;;;;22.10;12.50;;;;;;;13.85;56.46;99179.71;105914;1277;107788;-68
2022/06/06 00:20:12;;;;;;;20.90;12.70;;;;;;;13.80;56.56;99174.58;105872;1277;97959;-67
2022/06/06 00:22:43;;;;;;;20.10;11.80;;;;;;;13.78;56.62;99170.72;105980;1277;97963;-69
2022/06/06 00:25:11;;;;;;;19.80;11.70;;;;;;;13.75;56.64;99167.52;105947;1277;109780;-69
2022/06/06 00:27:39;;;;;;;21.80;12.00;;;;;;;13.72;56.78;99167.46;105893;1278;97998;-69
2022/06/06 00:30:09;;;;;;;30.40;12.50;;;;;;;13.68;56.70;99165.97;105922;1277;107846;-67
2022/06/06 00:35:24;;;;;;;22.00;12.40;;;;;;;13.58;56.81;99164.69;105871;1277;97971;-69
2022/06/06 00:37:53;;;;;;;23.50;13.40;;;;;;;13.54;56.91;99163.98;105877;1277;111876;-69
2022/06/06 00:40:26;;;;;;;21.40;12.30;;;;;;;13.51;56.91;99168.98;105929;1277;97893;-69
2022/06/06 00:42:54;;;;;;;21.00;12.50;;;;;;;13.48;56.95;99171.91;105966;1277;107819;-67
2022/06/06 00:45:39;;;;;;;22.10;12.40;;;;;;;13.45;56.96;99173.08;105943;1277;97897;-70
2022/06/06 00:48:41;;;;;;;21.10;12.50;;;;;;;13.39;57.16;99167.98;105929;1277;97916;-70
2022/06/06 00:51:14;;;;;;;22.30;12.40;;;;;;;13.35;57.21;99165.34;105983;1277;112811;-70
2022/06/06 00:53:53;;;;;;;23.20;12.60;;;;;;;13.31;57.27;99158.38;105954;1277;97841;-70
2022/06/06 00:56:27;;;;;;;21.30;13.30;;;;;;;13.26;57.37;99153.40;105892;1277;107735;-69
2022/06/06 00:58:59;;;;;;;21.40;12.80;;;;;;;13.23;57.52;99148.67;105937;1278;98010;-68
2022/06/06 01:01:31;;;;;;;22.60;13.70;;;;;;;13.22;57.60;99146.27;105920;1276;95412;-68
2022/06/06 01:04:03;;;;;;;21.40;13.00;;;;;;;13.20;57.62;99143.73;105896;1277;111367;-69
2022/06/06 01:06:37;;;;;;;22.00;13.00;;;;;;;13.19;57.66;99139.02;105881;1279;97982;-69
2022/06/06 01:09:06;;;;;;;;;;;;;;;13.18;57.86;99138.92;105822;1279;107740;-68
2022/06/06 01:11:41;;;;;;;21.00;13.20;;;;;;;13.15;58.06;99135.61;105916;1278;97986;-69
2022/06/06 01:14:14;;;;;;;22.80;14.10;;;;;;;13.17;58.12;99135.09;105872;1278;97972;-70
2022/06/06 01:17:05;;;;;;;22.60;13.90;;;;;;;13.19;58.09;99135.09;105937;1278;111356;-67
2022/06/06 01:19:52;;;;;;;19.80;11.90;;;;;;;13.20;58.23;99135.38;105912;1277;97943;-68
2022/06/06 01:22:39;;;;;;;21.20;12.30;;;;;;;13.20;58.18;99133.08;105927;1277;108274;-67
2022/06/06 01:25:20;;;;;;;21.50;13.20;;;;;;;13.16;58.09;99129.44;105890;1277;96301;-65
2022/06/06 01:27:52;;;;;;;24.00;14.50;;;;;;;13.13;58.38;99131.35;105975;1277;97910;-68
2022/06/06 01:30:40;;;;;;;22.70;13.10;;;;;;;13.12;58.48;99135.35;105853;1279;111999;-67
2022/06/06 01:33:14;;;;;;;20.60;11.30;;;;;;;13.11;58.47;99138.21;105890;1279;97880;-68
2022/06/06 01:35:46;;;;;;;19.70;11.40;;;;;;;13.09;58.47;99126.45;105840;1279;107910;-68
2022/06/06 01:38:18;;;;;;;19.90;11.70;;;;;;;13.08;58.45;99124.41;105902;1279;98007;-70
2022/06/06 01:41:01;;;;;;;20.00;11.70;;;;;;;13.05;58.62;99118.23;105899;1279;97837;-68
2022/06/06 01:43:51;;;;;;;19.70;11.40;;;;;;;13.05;58.60;99117.75;105850;1279;111991;-67
2022/06/06 01:46:28;;;;;;;19.80;11.10;;;;;;;13.00;58.57;99115.69;105921;1279;97986;-68
2022/06/06 01:48:59;;;;;;;21.00;11.40;;;;;;;12.93;58.70;99120.62;105833;1279;107417;-69
2022/06/06 01:51:32;;;;;;;19.80;11.40;;;;;;;12.89;58.61;99115.13;105854;1279;95274;-68
2022/06/06 01:54:00;;;;;;;20.50;11.00;;;;;;;12.85;58.89;99114.54;105861;1279;98458;-68
2022/06/06 01:56:36;;;;;;;21.90;12.30;;;;;;;12.83;58.79;99112.42;105845;1276;112118;-69
2022/06/06 01:59:05;;;;;;;22.10;13.50;;;;;;;12.78;58.83;99103.34;105852;1279;97976;-68
2022/06/06 02:01:33;;;;;;;24.00;14.10;;;;;;;12.74;58.76;99103.13;105823;1279;108320;-69
2022/06/06 02:04:02;;;;;;;23.90;13.40;;;;;;;12.70;58.82;99104.52;105878;1279;96488;-69
2022/06/06 02:06:30;;;;;;;22.80;13.00;;;;;;;12.65;58.81;99105.42;105891;1279;97983;-69
2022/06/06 02:08:59;;;;;;;23.50;14.50;;;;;;;12.61;58.92;99105.77;105836;1279;111762;-67
2022/06/06 02:11:28;;;;;;;21.90;13.90;;;;;;;12.58;58.89;99101.36;105908;1279;97996;-66
2022/06/06 02:13:58;;;;;;;25.40;14.60;;;;;;;12.55;58.92;99098.11;105918;1279;108380;-67
2022/06/06 02:16:26;;;;;;;24.70;16.70;;;;;;;12.50;58.98;99095.40;105904;1279;97910;-67
2022/06/06 02:18:54;;;;;;;25.20;15.30;;;;;;;12.48;59.15;99093.10;105955;1279;97886;-67
2022/06/06 02:21:23;;;;;;;22.80;14.50;;;;;;;12.46;59.14;99090.17;105979;1277;111918;-68
2022/06/06 02:23:51;;;;;;;26.10;15.70;;;;;;;12.45;59.17;99094.44;106000;1277;97896;-69
2022/06/06 02:26:19;;;;;;;24.60;15.40;;;;;;;12.43;59.23;99101.91;105979;1277;108104;-68
2022/06/06 02:28:48;;;;;;;23.50;14.50;;;;;;;12.40;59.19;99097.36;106003;1277;97890;-70
2022/06/06 02:31:16;;;;;;;22.60;13.40;;;;;;;12.37;59.33;99105.23;105995;1277;97975;-68
2022/06/06 02:33:44;;;;;;;23.50;13.20;;;;;;;12.33;59.36;99106.01;105980;1277;112522;-66
2022/06/06 02:36:14;;;;;;;22.50;12.30;;;;;;;12.30;59.27;99113.00;105996;1277;96831;-68
2022/06/06 02:38:41;;;;;;;22.20;13.90;;;;;;;12.26;59.28;99110.33;105950;1277;107517;-67
2022/06/06 02:41:12;;;;;;;22.90;13.40;;;;;;;12.22;59.43;99110.15;105967;1277;97903;-68
2022/06/06 02:43:43;;;;;;;23.10;12.80;;;;;;;12.19;59.52;99108.92;106018;1277;98005;-68
2022/06/06 02:46:13;;;;;;;21.50;12.20;;;;;;;12.17;59.56;99112.46;106010;1277;112507;-68
2022/06/06 02:48:42;;;;;;;23.60;13.90;;;;;;;12.12;59.56;99109.27;105993;1277;97980;-69
2022/06/06 02:51:11;;;;;;;23.20;12.60;;;;;;;12.09;59.76;99110.91;105929;1277;108324;-69
2022/06/06 02:53:40;;;;;;;25.90;13.70;;;;;;;12.08;59.66;99113.35;105992;1277;97973;-67
2022/06/06 02:56:09;;;;;;;23.20;14.20;;;;;;;12.07;59.73;99118.38;106038;1277;97862;-67
2022/06/06 02:58:38;;;;;;;23.60;14.90;;;;;;;12.04;59.89;99120.51;106014;1277;112012;-68
2022/06/06 03:01:11;;;;;;;24.30;15.10;;;;;;;12.04;59.99;99123.00;105989;1278;97852;-68
2022/06/06 03:03:40;;;;;;;24.20;14.50;;;;;;;12.03;60.10;99125.63;105998;1277;107807;-67
2022/06/06 03:06:57;;;;;;;24.80;15.30;;;;;;;12.02;60.12;99132.23;105978;1277;98681;-69
2022/06/06 03:09:52;;;;;;;24.10;15.20;;;;;;;12.02;60.32;99138.31;105914;1278;97898;-68
2022/06/06 03:12:56;;;;;;;24.10;16.00;;;;;;;12.05;60.39;99140.94;105981;1277;112413;-67
2022/06/06 03:22:19;;;;;;;25.80;15.80;;;;;;;12.09;60.61;99139.20;105714;1279;97982;-68
2022/06/06 03:24:55;;;;;;;23.80;15.30;;;;;;;12.12;60.64;99135.40;105920;1279;95294;-69
2022/06/06 03:27:46;;;;;;;24.00;15.10;;;;;;;12.14;60.63;99133.48;105917;1279;111928;-69
2022/06/06 03:30:19;;;;;;;23.90;15.00;;;;;;;12.18;60.79;99134.92;106001;1277;97790;-67
2022/06/06 03:32:54;;;;;;;22.80;14.80;;;;;;;12.21;60.76;99133.48;105910;1277;108587;-67
2022/06/06 03:35:40;;;;;;;23.80;13.60;;;;;;;12.25;60.67;99135.33;105987;1278;98005;-68
2022/06/06 03:38:20;;;;;;;24.60;13.90;;;;;;;12.27;60.77;99142.38;105979;1278;96599;-70
2022/06/06 03:41:03;;;;;;;20.80;12.80;;;;;;;12.29;60.79;99147.06;105959;1277;111499;-69
2022/06/06 03:43:41;;;;;;;20.80;13.60;;;;;;;12.31;60.84;99142.52;106032;1277;95319;-69
2022/06/06 03:46:21;;;;;;;23.70;13.80;;;;;;;12.32;60.95;99135.28;105942;1277;107648;-70
2022/06/06 03:49:14;;;;;;;23.40;14.40;;;;;;;12.34;60.94;99137.79;105956;1277;98033;-73
2022/06/06 03:52:00;;;;;;;22.20;14.00;;;;;;;12.34;60.95;99141.69;105175;1279;999810;-71
2022/06/06 03:54:42;;;;;;;22.50;14.20;;;;;;;12.35;61.17;99144.42;105920;1279;111109;-71
2022/06/06 03:57:14;;;;;;;24.60;14.60;;;;;;;12.39;61.08;99140.42;105936;1278;97970;-71
2022/06/06 03:59:53;;;;;;;25.80;16.00;;;;;;;12.41;61.03;99136.52;105945;1278;107615;-69
2022/06/06 04:02:31;;;;;;;24.40;15.90;;;;;;;12.44;61.20;99129.21;105984;1277;97857;-69
2022/06/06 04:05:06;;;;;;;25.30;16.90;;;;;;;12.47;61.29;99133.58;105903;1279;97882;-68
2022/06/06 04:07:36;;;;;;;26.10;16.30;;;;;;;12.50;61.26;99131.17;105877;1277;111032;-69
2022/06/06 04:10:06;;;;;;;26.40;17.50;;;;;;;12.53;61.22;99131.35;105922;1278;98008;-72
2022/06/06 04:12:43;;;;;;;25.70;17.90;;;;;;;12.54;61.11;99137.46;105932;1278;107902;-71
2022/06/06 04:15:39;;;;;;;28.00;17.80;;;;;;;12.55;61.56;99140.04;105936;1278;98019;-69
2022/06/06 04:18:21;;;;;;;27.70;18.60;;;;;;;12.60;61.70;99144.69;105949;1278;98930;-71
2022/06/06 04:21:02;;;;;;;27.70;19.40;;;;;;;12.66;61.79;99145.95;106036;1278;111437;-72
2022/06/06 04:23:33;;;;;;;28.50;19.00;;;;;;;12.72;61.80;99146.52;106027;1277;97909;-71
2022/06/06 04:26:16;;;;;;;28.60;20.50;;;;;;;12.78;61.87;99150.48;106011;1278;107809;-72
2022/06/06 04:29:09;;;;;;;30.80;19.80;;;;;;;12.84;62.14;99155.01;106028;1277;97848;-71
2022/06/06 04:31:58;;;;;;;29.20;20.50;;;;;;;12.90;62.41;99158.95;106000;1278;97906;-69
2022/06/06 04:34:45;;;;;;;27.40;19.80;;;;;;;12.98;62.49;99164.25;105977;1277;111333;-70
2022/06/06 04:37:31;;;;;;;28.70;19.50;;;;;;;13.06;62.53;99170.35;106038;1277;97856;-70
2022/06/06 04:40:16;;;;;;;28.60;19.20;;;;;;;13.13;62.51;99175.29;105992;1278;107801;-70
2022/06/06 04:42:58;;;;;;;29.50;19.00;;;;;;;13.21;62.68;99181.23;105932;1278;97863;-67
2022/06/06 04:45:29;;;;;;;27.30;19.30;;;;;;;13.28;62.54;99188.63;105975;1278;97879;-69
2022/06/06 04:48:01;;;;;;;27.40;18.60;;;;;;;13.35;62.61;99194.30;105987;1278;111437;-69
2022/06/06 04:50:32;;;;;;;26.90;19.70;;;;;;;13.43;62.64;99198.73;105998;1277;95673;-69
2022/06/06 04:53:07;;;;;;;21.10;13.80;;;;;;;13.50;62.59;99197.95;105983;1278;106907;-69
2022/06/06 04:55:40;;;;;;;20.80;12.90;;;;;;;13.58;62.38;99204.41;105968;1278;98065;-70
2022/06/06 04:58:11;;;;;;;19.70;11.40;;;;;;;13.67;62.70;99210.78;105989;1277;97909;-71
2022/06/06 05:00:42;;;;;;;21.50;12.50;;;;;;;13.75;62.80;99214.79;106036;1277;111447;-69
2022/06/06 05:03:13;;;;;;;19.50;10.90;;;;;;;13.84;62.87;99214.23;105932;1277;97884;-70
2022/06/06 05:05:44;;;;;;;20.70;12.30;;;;;;;13.93;62.82;99212.95;105945;1278;107855;-70
2022/06/06 05:08:22;;;;;;;19.30;11.40;;;;;;;14.02;62.76;99215.73;105928;1277;98042;-71
2022/06/06 05:11:08;;;;;;;20.20;11.20;;;;;;;14.11;62.86;99214.25;105955;1277;97919;-70
2022/06/06 05:14:00;;;;;;;19.60;10.50;;;;;;;14.22;62.99;99210.16;105911;1277;111445;-70
2022/06/06 05:16:50;;;;;;;17.80;9.60;;;;;;;14.33;62.81;99202.27;105931;1279;96311;-68
2022/06/06 05:19:28;;;;;;;18.40;9.10;;;;;;;14.43;62.94;99206.50;105838;1279;108886;-71
2022/06/06 05:22:10;;;;;;;17.10;9.50;;;;;;;14.54;62.97;99207.94;105853;1279;98002;-72
2022/06/06 05:24:37;;;;;;;16.00;8.40;;;;;;;14.64;62.84;99212.09;105893;1278;98697;-70
2022/06/06 05:27:17;;;;;;;16.80;9.30;;;;;;;14.76;62.79;99212.67;105853;1277;111373;-69
2022/06/06 05:30:06;;;;;;;16.50;8.40;;;;;;;14.89;62.75;99214.07;105822;1277;97866;-70
2022/06/06 05:32:58;;;;;;;15.50;8.30;;;;;;;15.03;62.84;99216.04;105794;1277;107765;-69
2022/06/06 05:35:35;;;;;;;15.20;8.30;;;;;;;15.17;63.08;99217.95;105802;1279;98113;-69
2022/06/06 05:38:20;;;;;;;14.90;8.40;;;;;;;15.29;62.93;99224.19;105888;1279;97876;-70
2022/06/06 05:41:03;;;;;;;16.20;8.10;;;;;;;15.45;62.86;99228.84;105879;1279;112189;-71
2022/06/06 05:43:40;;;;;;;;;;;;;;;15.64;62.81;99229.82;105958;1277;97915;-68
2022/06/06 05:46:15;;;;;;;14.40;7.60;;;;;;;15.81;62.76;99229.36;105902;1280;107782;-68
2022/06/06 05:49:03;;;;;;;15.30;8.60;;;;;;;15.99;62.92;99226.73;105933;1278;96368;-69
2022/06/06 05:52:06;;;;;;;14.60;7.70;;;;;;;16.15;62.91;99227.21;105900;1279;97848;-70
2022/06/06 05:54:52;;;;;;;11.70;7.40;;;;;;;16.30;62.81;99222.95;105892;1278;111968;-70
2022/06/06 05:57:38;;;;;;;16.80;7.50;;;;;;;16.41;62.79;99219.23;105863;1279;97808;-69
2022/06/06 06:00:19;;;;;;;16.30;8.00;;;;;;;16.53;62.75;99218.96;105847;1279;108828;-70
2022/06/06 06:03:06;;;;;;;14.40;7.70;;;;;;;16.69;62.74;99215.00;105883;1277;95216;-69
2022/06/06 06:06:03;;;;;;;14.70;7.80;;;;;;;16.86;62.74;99207.64;105896;1277;97872;-70
2022/06/06 06:08:50;;;;;;;18.90;9.30;;;;;;;17.04;62.67;99205.77;105887;1279;111400;-69
2022/06/06 06:11:42;;;;;;;17.30;8.70;;;;;;;17.20;62.53;99200.35;105834;1279;97887;-68
2022/06/06 06:14:38;;;;;;;17.00;8.80;;;;;;;17.37;62.67;99197.09;105819;1278;105676;-67
2022/06/06 06:17:11;;;;;;;16.10;8.40;;;;;;;17.58;62.83;99191.48;105728;1277;97879;-69
2022/06/06 06:20:03;;;;;;;12.40;7.50;;;;;;;17.77;62.65;99190.42;105928;1277;97964;-68
2022/06/06 06:22:45;;;;;;;13.00;7.40;;;;;;;18.01;62.64;99192.71;105806;1277;111308;-71
2022/06/06 06:25:18;;;;;;;15.20;7.30;;;;;;;18.27;62.63;99191.60;105854;1278;97929;-70
2022/06/06 06:27:49;;;;;;;17.20;7.70;;;;;;;18.52;62.63;99191.13;105856;1277;107734;-70
2022/06/06 06:30:17;;;;;;;14.20;6.60;;;;;;;18.76;62.73;99183.13;105843;1278;97976;-70
2022/06/06 06:33:13;;;;;;;11.10;6.60;;;;;;;18.99;62.50;99183.95;105777;1278;97903;-70
2022/06/06 06:36:20;;;;;;;12.80;5.90;;;;;;;19.25;62.41;99183.92;105903;1277;111829;-69
2022/06/06 06:39:21;;;;;;;9.40;5.80;;;;;;;19.49;62.28;99184.35;105845;1279;97971;-70
2022/06/06 06:42:16;;;;;;;11.60;6.10;;;;;;;19.78;62.29;99173.19;105849;1277;107467;-71
2022/06/06 06:45:01;;;;;;;16.90;6.60;;;;;;;20.05;62.10;99173.15;105857;1278;96538;-71
2022/06/06 06:47:33;;;;;;;9.80;5.70;;;;;;;20.32;62.16;99167.42;105855;1278;98604;-70
2022/06/06 06:50:19;;;;;;;10.50;5.90;;;;;;;20.65;62.12;99157.46;105845;1278;111745;-73
2022/06/06 06:53:14;;;;;;;9.90;5.40;;;;;;;21.16;62.23;99154.20;105913;1278;98118;-70
2022/06/06 06:55:58;;;;;;;12.80;5.70;;;;;;;22.65;60.89;99150.89;105845;1279;107623;-71
2022/06/06 06:58:45;;;;;;;11.20;5.20;;;;;;;24.68;59.44;99151.92;105890;1277;98012;-71
2022/06/06 07:01:39;;;;;;;11.30;4.60;;;;;;;26.44;58.75;99150.32;105930;1279;95294;-70
2022/06/06 07:10:58;;;;;;;8.10;4.00;;;;;;;32.36;57.46;99134.73;105870;1277;108197;-70
2022/06/06 07:13:44;;;;;;;6.90;4.10;;;;;;;33.84;57.36;99132.89;105947;1277;97933;-72
2022/06/06 07:16:40;;;;;;;5.90;3.90;;;;;;;35.35;56.97;99126.91;105917;1279;98091;-71
2022/06/06 07:19:24;;;;;;;7.50;4.30;;;;;;;36.57;56.06;99127.09;105904;1278;111437;-72
2022/06/06 07:21:56;;;;;;;7.80;4.20;;;;;;;37.65;55.62;99130.50;105931;1277;98394;-72
2022/06/06 07:24:25;;;;;;;6.60;4.40;;;;;;;38.68;55.07;99127.41;105804;1278;107059;-69
2022/06/06 07:27:00;;;;;;;6.80;4.40;;;;;;;39.51;54.43;99127.83;105811;1279;97904;-71
2022/06/06 07:29:28;;;;;;;7.80;4.10;;;;;;;40.24;53.40;99120.61;105899;1278;95228;-70
2022/06/06 07:32:21;;;;;;;8.70;4.10;;;;;;;40.83;52.85;99122.21;105815;1279;111472;-70
2022/06/06 07:35:18;;;;;;;9.60;4.50;;;;;;;41.41;51.67;99121.07;105539;1279;99183;-68
2022/06/06 07:38:16;;;;;;;7.20;3.90;;;;;;;41.85;50.78;99129.38;105820;1279;109394;-72
2022/06/06 07:41:09;;;;;;;5.90;4.00;;;;;;;42.28;50.19;99133.11;105743;1279;99033;-68
2022/06/06 07:44:20;;;;;;;6.90;3.60;;;;;;;42.78;49.25;99128.63;105841;1279;98975;-70
2022/06/06 07:46:53;;;;;;;6.60;3.50;;;;;;;43.08;47.83;99135.05;105733;1279;111121;-71
2022/06/06 07:49:33;;;;;;;7.20;3.50;;;;;;;43.24;47.39;99140.05;105732;1279;98384;-71
2022/06/06 07:52:29;;;;;;;7.00;3.60;;;;;;;43.61;46.72;99141.80;105764;1279;107871;-71
2022/06/06 07:55:21;;;;;;;8.00;3.60;;;;;;;43.92;45.61;99140.92;105602;1279;97915;-69
2022/06/06 07:58:18;;;;;;;8.70;3.10;;;;;;;44.06;44.55;99140.49;105807;1279;97895;-68
2022/06/06 08:01:03;;;;;;;5.70;3.10;;;;;;;44.06;43.85;99136.58;105854;1279;112297;-69
2022/06/06 08:04:18;;;;;;;6.80;3.00;;;;;;;43.96;42.62;99133.89;105736;1279;98384;-69
2022/06/06 08:07:16;;;;;;;4.60;3.10;;;;;;;43.83;42.31;99134.61;105241;1284;107655;-70
2022/06/06 08:09:50;;;;;;;6.30;3.30;;;;;;;43.77;41.73;99132.46;105225;1284;97968;-70
2022/06/06 08:12:43;;;;;;;6.90;4.40;;;;;;;43.80;40.81;99127.78;105563;1281;97812;-70
2022/06/06 08:15:14;;;;;;;4.50;3.00;;;;;;;43.72;39.98;99118.17;105764;1279;111386;-71
2022/06/06 08:18:23;;;;;;;5.70;3.00;;;;;;;43.64;39.38;99114.91;105683;1279;98412;-71
2022/06/06 08:20:57;;;;;;;4.00;2.70;;;;;;;43.55;38.94;99116.90;105771;1279;106966;-69
2022/06/06 08:23:27;;;;;;;6.20;3.10;;;;;;;43.46;38.29;99114.00;105870;1279;97966;-69
2022/06/06 08:25:57;;;;;;;4.40;2.80;;;;;;;43.33;37.47;99120.73;105819;1279;95283;-69
2022/06/06 08:28:26;;;;;;;5.70;3.20;;;;;;;43.20;36.92;99123.66;105793;1279;111565;-70
2022/06/06 08:30:54;;;;;;;4.30;3.10;;;;;;;42.91;36.56;99123.42;105732;1279;97746;-69
2022/06/06 08:33:24;;;;;;;4.20;2.60;;;;;;;42.89;36.17;99126.52;105766;1279;108800;-70
2022/06/06 08:36:31;;;;;;;4.90;2.90;;;;;;;42.74;35.60;99129.01;105814;1279;97106;-70
2022/06/06 08:39:27;;;;;;;4.70;2.60;;;;;;;42.85;35.34;99127.77;105749;1279;97020;-70
2022/06/06 08:41:55;;;;;;;4.10;3.20;;;;;;;41.84;33.15;99132.20;105649;1279;111609;-69
2022/06/06 08:44:28;;;;;;;8.20;3.40;;;;;;;40.79;33.46;99132.80;105745;1279;98502;-71
2022/06/06 08:47:34;;;;;;;6.20;3.40;;;;;;;40.62;33.44;99130.61;105742;1279;107683;-73
2022/06/06 08:50:46;;;;;;;6.20;3.20;;;;;;;40.77;33.24;99137.64;105767;1279;97952;-72
2022/06/06 08:53:52;;;;;;;6.30;3.40;;;;;;;40.69;32.75;99137.59;105801;1279;97907;-70
2022/06/06 08:56:47;;;;;;;10.40;3.50;;;;;;;40.98;32.86;99135.28;105794;1279;111449;-69
2022/06/06 08:59:47;;;;;;;5.60;2.80;;;;;;;40.96;32.42;99130.35;105802;1279;96419;-70
2022/06/06 09:02:45;;;;;;;10.10;3.30;;;;;;;41.08;32.13;99129.88;105702;1279;107831;-70
2022/06/06 09:05:31;;;;;;;5.50;3.00;;;;;;;41.12;31.82;99134.73;105756;1279;98018;-70
2022/06/06 09:08:35;;;;;;;2.90;2.20;;;;;;;40.40;31.08;99131.51;105608;1279;96574;-71
2022/06/06 09:11:37;;;;;;;4.90;3.30;;;;;;;38.61;29.00;99130.18;106110;1281;111447;-69
2022/06/06 09:14:28;;;;;;;4.10;2.80;;;;;;;37.38;29.77;99129.09;105584;1279;100577;-69
2022/06/06 09:17:16;;;;;;;4.80;2.60;;;;;;;37.17;30.21;99124.73;105234;1279;109191;-70
2022/06/06 09:20:06;;;;;;;7.40;3.10;;;;;;;37.54;29.87;99126.70;105550;1279;98547;-71
2022/06/06 09:22:52;;;;;;;4.00;3.00;;;;;;;36.49;28.43;99121.19;105560;1279;97886;-69
2022/06/06 09:25:37;;;;;;;4.10;2.50;;;;;;;35.90;28.85;99120.48;105551;1279;111457;-69
2022/06/06 09:28:27;;;;;;;6.00;2.90;;;;;;;35.64;29.23;99120.17;105711;1279;98405;-69
2022/06/06 09:30:58;;;;;;;2.70;2.50;;;;;;;35.70;28.50;99119.83;105610;1279;107668;-69
2022/06/06 09:33:35;;;;;;;4.50;2.80;;;;;;;35.06;28.32;99119.73;105769;1279;97967;-71
2022/06/06 09:36:23;;;;;;;6.10;2.90;;;;;;;34.26;27.99;99124.33;105830;1279;97860;-70
2022/06/06 09:39:08;;;;;;;5.20;2.50;;;;;;;34.20;28.93;99121.83;105717;1279;111883;-70
2022/06/06 09:41:40;;;;;;;9.50;2.80;;;;;;;34.49;28.80;99120.28;105809;1279;98358;-69
2022/06/06 09:44:11;;;;;;;4.10;2.60;;;;;;;34.73;29.20;99122.48;105734;1279;107746;-70
2022/06/06 09:46:51;;;;;;;9.30;3.20;;;;;;;34.98;29.27;99124.30;105777;1279;95220;-71
2022/06/06 09:50:06;;;;;;;5.60;3.00;;;;;;;35.29;29.47;99115.97;105778;1279;97342;-72
2022/06/06 09:53:02;;;;;;;3.40;2.80;;;;;;;35.89;29.61;99123.14;105695;1279;112261;-69
2022/06/06 09:59:15;;;;;;;3.30;2.70;;;;;;;35.89;29.62;99119.31;105697;1279;107825;-70
2022/06/06 10:01:59;;;;;;;5.00;2.60;;;;;;;35.57;29.58;99119.94;105550;1279;98655;-69
2022/06/06 10:04:52;;;;;;;4.80;3.00;;;;;;;35.32;29.59;99118.52;105696;1279;97839;-70
2022/06/06 10:07:58;;;;;;;7.30;2.60;;;;;;;34.98;29.48;99110.14;105661;1279;111353;-70
2022/06/06 10:10:29;;;;;;;5.70;2.50;;;;;;;34.60;29.31;99110.94;105745;1279;98396;-68
2022/06/06 10:13:10;;;;;;;4.80;2.80;;;;;;;34.22;29.32;99112.83;105664;1279;108380;-69
2022/06/06 10:15:59;;;;;;;5.10;2.80;;;;;;;33.81;29.68;99108.63;105681;1279;96978;-67
2022/06/06 10:18:58;;;;;;;8.80;3.30;;;;;;;33.54;29.71;99097.22;105691;1279;98451;-70
2022/06/06 10:21:47;;;;;;;5.50;3.30;;;;;;;33.04;29.57;99099.42;105823;1279;111158;-70
2022/06/06 10:24:44;;;;;;;5.70;2.70;;;;;;;32.79;29.83;99102.45;105659;1279;98380;-68
2022/06/06 10:27:35;;;;;;;19.20;11.00;;;;;;;32.53;29.57;99092.80;105564;1279;106583;-71
2022/06/06 10:30:37;;;;;;;8.10;3.90;;;;;;;32.20;29.81;99084.00;105659;1279;97927;-70
2022/06/06 10:33:27;;;;;;;5.20;3.30;;;;;;;31.89;30.05;99089.94;105767;1279;96452;-68
2022/06/06 10:36:11;;;;;;;4.20;3.10;;;;;;;31.80;29.92;99088.02;105759;1279;111195;-71
2022/06/06 10:39:07;;;;;;;3.10;2.70;;;;;;;31.14;29.47;99089.63;105591;1279;96901;-67
2022/06/06 10:42:02;;;;;;;5.50;3.30;;;;;;;30.59;29.70;99086.54;105520;1279;107820;-68
2022/06/06 10:45:09;;;;;;;9.90;4.20;;;;;;;30.11;30.17;99088.75;105360;1279;98026;-87
2022/06/06 10:47:58;;;;;;;8.90;3.70;;;;;;;30.06;30.38;99092.13;105610;1281;97956;-82
2022/06/06 10:50:39;;;;;;;8.00;3.60;;;;;;;29.96;30.48;99080.55;105841;1279;111103;-77
2022/06/06 10:53:24;;;;;;;7.60;3.60;;;;;;;29.77;30.62;99079.66;105893;1279;98389;-72
2022/06/06 10:56:18;;;;;;;9.40;3.80;;;;;;;29.57;30.81;99083.93;105596;1279;109348;-72
2022/06/06 10:59:09;;;;;;;8.70;3.60;;;;;;;29.45;30.64;99077.39;105787;1279;97942;-71
2022/06/06 11:02:09;;;;;;;8.20;3.70;;;;;;;29.25;31.28;99077.88;105755;1279;97952;-72
2022/06/06 11:05:03;;;;;;;7.00;3.90;;;;;;;29.16;31.41;99071.61;105698;1279;111391;-72
2022/06/06 11:07:55;;;;;;;8.70;3.50;;;;;;;29.03;31.53;99067.38;105577;1279;97872;-71
2022/06/06 11:11:04;;;;;;;4.30;3.30;;;;;;;28.90;31.60;99071.56;105414;1279;107827;-72
2022/06/06 11:14:03;;;;;;;6.80;4.00;;;;;;;28.75;31.47;99069.56;105077;1279;98470;-73
2022/06/06 11:17:10;;;;;;;4.50;3.40;;;;;;;28.60;31.85;99061.62;106728;1279;95741;-71
2022/06/06 11:19:54;;;;;;;8.30;4.20;;;;;;;28.50;31.83;99055.89;105541;1279;110357;-72
2022/06/06 11:22:26;;;;;;;5.10;3.10;;;;;;;28.45;32.11;99057.81;105447;1279;95904;-73
2022/06/06 11:25:11;;;;;;;6.70;3.80;;;;;;;28.36;31.96;99056.56;105762;1279;107806;-72
2022/06/06 11:27:57;;;;;;;10.20;3.40;;;;;;;28.22;32.27;99060.51;105701;1281;98573;-72
2022/06/06 11:31:19;;;;;;;8.40;3.60;;;;;;;28.02;32.30;99058.00;105786;1279;97905;-72
2022/06/06 11:34:17;;;;;;;5.30;3.60;;;;;;;27.82;32.66;99051.59;105257;1285;111306;-71
2022/06/06 11:37:07;;;;;;;5.20;3.50;;;;;;;27.69;32.86;99050.27;105212;1285;98023;-73
2022/06/06 11:39:53;;;;;;;7.20;3.30;;;;;;;27.63;33.00;99056.86;105680;1279;107830;-71
2022/06/06 11:42:41;;;;;;;6.40;3.00;;;;;;;27.59;32.68;99051.90;105670;1279;97979;-68
2022/06/06 11:45:54;;;;;;;9.40;3.30;;;;;;;27.44;32.90;99054.69;106707;1278;97888;-70
2022/06/06 11:48:41;;;;;;;;;;;;;;;27.40;33.33;99051.19;105546;1279;113504;-69
2022/06/06 11:51:32;;;;;;;4.70;3.00;;;;;;;27.37;33.18;99050.41;107503;1279;96137;-67
2022/06/06 11:54:03;;;;;;;4.20;3.20;;;;;;;27.34;33.31;99048.63;107412;1279;107699;-68
2022/06/06 11:56:41;;;;;;;8.10;4.30;;;;;;;27.25;33.45;99052.86;107391;1279;96210;-68
2022/06/06 11:59:42;;;;;;;8.40;4.10;;;;;;;27.19;33.35;99046.42;106287;1279;98019;-70
2022/06/06 12:02:28;;;;;;;6.00;3.20;;;;;;;27.12;33.53;99045.59;105399;1279;112078;-70
2022/06/06 12:05:29;;;;;;;5.60;3.30;;;;;;;27.06;33.83;99040.48;105347;1279;95591;-69
2022/06/06 12:08:12;;;;;;;6.20;3.50;;;;;;;27.08;33.92;99035.52;105705;1279;107449;-68
2022/06/06 12:11:10;;;;;;;7.00;3.00;;;;;;;27.14;34.18;99030.30;105702;1279;98004;-68
2022/06/06 12:14:26;;;;;;;6.00;3.50;;;;;;;27.20;34.25;99027.61;105622;1279;97897;-68
2022/06/06 12:17:13;;;;;;;5.60;3.40;;;;;;;27.23;33.96;99030.06;105362;1284;112190;-69
2022/06/06 12:20:10;;;;;;;4.50;3.00;;;;;;;27.16;34.16;99027.33;105580;1279;97020;-68
2022/06/06 12:23:01;;;;;;;5.70;3.20;;;;;;;27.19;34.54;99023.55;105622;1279;108413;-69
2022/06/06 12:26:08;;;;;;;9.50;3.30;;;;;;;27.28;34.47;99025.20;105629;1279;97836;-70
2022/06/06 12:29:13;;;;;;;4.40;3.20;;;;;;;27.39;34.91;99020.48;105931;1279;98006;-73
2022/06/06 12:31:56;;;;;;;5.00;3.00;;;;;;;27.52;34.75;99013.60;105776;1281;111309;-73
2022/06/06 12:34:46;;;;;;;6.80;2.90;;;;;;;27.56;34.44;99012.21;105777;1281;97835;-70
2022/06/06 12:37:28;;;;;;;;;;;;;;;27.54;34.45;99003.29;105759;1281;106901;-72
2022/06/06 12:40:29;;;;;;;5.10;2.60;;;;;;;27.43;34.91;99001.17;105703;1281;98621;-69
2022/06/06 12:43:14;;;;;;;5.30;2.70;;;;;;;27.43;34.71;99004.64;105847;1281;98032;-70
2022/06/06 12:46:12;;;;;;;6.40;3.20;;;;;;;27.40;34.88;99000.64;105775;1281;111447;-73